Drachten Airfield

EHDR · Provincie Fryslân, Nederland

5 oktober 2022

Tijd Code Weer Temp. Zicht Plafond Wind METAR/SPECI
18:55
M
17 °C 10 km+ 2.800 ft 210° 210° 16 kt METAR EHLE 051655Z AUTO 21016KT 180V240 9999 OVC028 17/12 Q1012 NOSIG
18:25
V
17 °C 10 km+ 3.100 ft 210° 210° 17 kt METAR EHLE 051625Z AUTO 21017KT 170V240 9999 OVC031 17/12 Q1012 NOSIG
17:55
V
17 °C 10 km+ 3.500 ft 210° 210° 19 kt METAR EHLE 051555Z AUTO 21019KT 180V250 9999 BKN035 OVC039 17/12 Q1011 NOSIG
17:25
V
17 °C 10 km+ 3.400 ft 210° 210° 18 kt METAR EHLE 051525Z AUTO 21018KT 180V240 9999 FEW030 BKN034 BKN039 17/12 Q1011 NOSIG
16:55
V
17 °C 10 km+ 3.000 ft 220° 220° 19 kt METAR EHLE 051455Z AUTO 22019KT 180V260 9999 FEW027 BKN030 OVC034 17/12 Q1012 NOSIG
16:25
V
17 °C 10 km+ 3.300 ft 220° 220° 17 kt METAR EHLE 051425Z AUTO 22017KT 180V250 9999 FEW029 OVC033 17/13 Q1011 NOSIG
15:55
V
17 °C 10 km+ 3.000 ft 220° 220° 18 - 28 kt METAR EHLE 051355Z AUTO 22018G28KT 190V250 9999 FEW027 OVC030 17/12 Q1011 NOSIG
15:25
M
17 °C 10 km+ 2.800 ft 220° 220° 22 kt METAR EHLE 051325Z AUTO 22022KT 190V250 9999 BKN028 OVC031 17/12 Q1011 NOSIG
14:55
M
17 °C 10 km+ 2.700 ft 210° 210° 20 kt METAR EHLE 051255Z AUTO 21020KT 190V250 9999 BKN027 OVC030 17/12 Q1011 NOSIG
14:25
M
17 °C 10 km+ 2.600 ft 210° 210° 14 - 24 kt METAR EHLE 051225Z AUTO 21014G24KT 180V250 9999 SCT023 BKN026 OVC030 17/12 Q1012 NOSIG
13:55
V
17 °C 10 km+ - 210° 210° 15 kt METAR EHLE 051155Z AUTO 21015KT 180V250 9999 ////// 17/12 Q1012 NOSIG
13:25
M
17 °C 10 km+ 2.400 ft 220° 220° 17 kt METAR EHLE 051125Z AUTO 22017KT 190V260 9999 BKN024 OVC027 17/12 Q1012 NOSIG
12:55
M
17 °C 10 km+ 2.400 ft 210° 210° 16 - 28 kt METAR EHLE 051055Z AUTO 21016G28KT 170V250 9999 BKN024 OVC027 17/12 Q1012 NOSIG
12:25
M
17 °C 10 km+ 2.200 ft 210° 210° 17 - 29 kt METAR EHLE 051025Z AUTO 21017G29KT 170V240 9999 BKN022 OVC026 17/12 Q1012 NOSIG
11:55
M
16 °C 10 km+ 2.200 ft 210° 210° 14 - 24 kt METAR EHLE 050955Z AUTO 21014G24KT 170V230 9999 OVC022 16/12 Q1013 NOSIG
11:25
M
16 °C 10 km+ 2.200 ft 200° 200° 13 kt METAR EHLE 050925Z AUTO 20013KT 170V230 9999 OVC022 16/12 Q1013 NOSIG
10:55
M
16 °C 10 km+ 2.400 ft 200° 200° 14 kt METAR EHLE 050855Z AUTO 20014KT 170V250 9999 OVC024 16/12 Q1013 NOSIG
10:25
M
16 °C 10 km+ 2.500 ft 200° 200° 14 kt METAR EHLE 050825Z AUTO 20014KT 170V230 9999 OVC025 16/12 Q1013 NOSIG
09:55
M
15 °C 10 km+ 2.700 ft 200° 200° 13 kt METAR EHLE 050755Z AUTO 20013KT 170V230 9999 OVC027 15/12 Q1013 NOSIG
09:25
M
15 °C 10 km+ 2.700 ft 200° 200° 12 kt METAR EHLE 050725Z AUTO 20012KT 9999 OVC027 15/11 Q1013 NOSIG
08:55
M
15 °C 10 km+ 2.700 ft 210° 210° 12 kt METAR EHLE 050655Z AUTO 21012KT 180V240 9999 OVC027 15/11 Q1013 NOSIG
08:25
M
15 °C 10 km+ 2.900 ft 210° 210° 12 kt METAR EHLE 050625Z AUTO 21012KT 180V240 9999 OVC029 15/11 Q1013 NOSIG
07:55
M
15 °C 10 km+ 2.700 ft 210° 210° 11 kt METAR EHLE 050555Z AUTO 21011KT 170V230 9999 OVC027 15/12 Q1013 NOSIG
07:25
M
15 °C 10 km+ 2.700 ft 200° 200° 13 kt METAR EHLE 050525Z AUTO 20013KT 170V230 9999 OVC027 15/12 Q1013 NOSIG
06:55
M
15 °C 10 km+ 2.900 ft 210° 210° 12 kt METAR EHLE 050455Z AUTO 21012KT 170V240 9999 OVC029 15/12 Q1014
06:25
V
15 °C 10 km+ 3.000 ft 200° 200° 11 kt METAR EHLE 050425Z AUTO 20011KT 170V230 9999 OVC030 15/12 Q1014
05:55
V
15 °C 10 km+ 3.200 ft 210° 210° 11 kt METAR EHLE 050355Z AUTO 21011KT 180V240 9999 OVC032 15/12 Q1014
05:25
V
15 °C 10 km+ 3.200 ft 200° 200° 12 kt METAR EHLE 050325Z AUTO 20012KT 9999 BKN032 15/12 Q1014
04:55
V
15 °C 10 km+ 3.200 ft 200° 200° 11 kt METAR EHLE 050255Z AUTO 20011KT 170V230 9999 OVC032 15/12 Q1014
04:25
V
15 °C 10 km+ 3.200 ft 200° 200° 11 kt METAR EHLE 050225Z AUTO 20011KT 170V230 9999 BKN032 15/12 Q1014
03:55
V
15 °C 10 km+ 3.300 ft 200° 200° 10 kt METAR EHLE 050155Z AUTO 20010KT 170V230 9999 OVC033 15/12 Q1015
03:25
V
15 °C 10 km+ 3.400 ft 200° 200° 10 kt METAR EHLE 050125Z AUTO 20010KT 180V240 9999 OVC034 15/13 Q1015
02:55
V
15 °C 10 km+ 3.400 ft 200° 200° 10 kt METAR EHLE 050055Z AUTO 20010KT 170V230 9999 OVC034 15/13 Q1015
02:25
V
15 °C 10 km+ 3.300 ft 200° 200° 10 kt METAR EHLE 050025Z AUTO 20010KT 180V240 9999 OVC033 15/13 Q1016
01:55
V
16 °C 10 km+ 3.100 ft 200° 200° 11 kt METAR EHLE 042355Z AUTO 20011KT 170V230 9999 SCT026 BKN031 OVC035 16/13 Q1016
01:25
V
16 °C 10 km+ 3.100 ft 200° 200° 9 kt METAR EHLE 042325Z AUTO 20009KT 170V230 9999 BKN031 OVC035 16/12 Q1016
00:55
V
16 °C 10 km+ 3.300 ft 200° 200° 11 kt METAR EHLE 042255Z AUTO 20011KT 9999 OVC033 16/12 Q1016
00:25
V
16 °C 10 km+ 3.200 ft 200° 200° 9 kt METAR EHLE 042225Z AUTO 20009KT 9999 OVC032 16/12 Q1016

4 oktober 2022

Tijd Code Weer Temp. Zicht Plafond Wind METAR/SPECI
23:55
V
16 °C 10 km+ 3.300 ft 210° 210° 10 kt METAR EHLE 042155Z AUTO 21010KT 180V240 9999 OVC033 16/13 Q1017
23:25
V
16 °C 10 km+ 3.500 ft 200° 200° 9 kt METAR EHLE 042125Z AUTO 20009KT 170V230 9999 OVC035 16/13 Q1017
22:55
V
16 °C 10 km+ 3.300 ft 210° 210° 9 kt METAR EHLE 042055Z AUTO 21009KT 180V240 9999 BKN033 OVC037 16/13 Q1016
22:25
V
16 °C 10 km+ 3.500 ft 200° 200° 9 kt METAR EHLE 042025Z AUTO 20009KT 9999 OVC035 16/13 Q1016
21:55
V
16 °C 10 km+ 3.700 ft 190° 190° 8 kt METAR EHLE 041955Z AUTO 19008KT 160V220 9999 OVC037 16/13 Q1016 NOSIG
21:25
V
16 °C 10 km+ 3.800 ft 190° 190° 9 kt METAR EHLE 041925Z AUTO 19009KT 9999 OVC038 16/13 Q1016 NOSIG
20:55
V
16 °C 10 km+ 3.800 ft 200° 200° 8 kt METAR EHLE 041855Z AUTO 20008KT 170V230 9999 OVC038 16/13 Q1017 NOSIG
20:25
V
16 °C 10 km+ 3.600 ft 190° 190° 7 kt METAR EHLE 041825Z AUTO 19007KT 9999 OVC036 16/13 Q1017 NOSIG
19:55
V
16 °C 10 km+ 3.700 ft 190° 190° 6 kt METAR EHLE 041755Z AUTO 19006KT 9999 OVC037 16/12 Q1017 NOSIG
19:25
V
16 °C 10 km+ 4.000 ft 200° 200° 6 kt METAR EHLE 041725Z AUTO 20006KT 9999 FEW029 SCT035 BKN040 16/12 Q1017 NOSIG
18:55
V
16 °C 10 km+ 3.700 ft 190° 190° 6 kt METAR EHLE 041655Z AUTO 19006KT 170V230 9999 SCT032 BKN037 OVC042 16/12 Q1017 NOSIG
18:25
V
16 °C 10 km+ 4.200 ft 190° 190° 6 kt METAR EHLE 041625Z AUTO 19006KT 9999 FEW029 BKN042 16/12 Q1017 NOSIG
17:55
V
16 °C 10 km+ 4.100 ft 190° 190° 8 kt METAR EHLE 041555Z AUTO 19008KT 9999 BKN041 16/12 Q1017 NOSIG
17:25
V
17 °C 10 km+ 3.600 ft 200° 200° 9 kt METAR EHLE 041525Z AUTO 20009KT 9999 BKN036 17/12 Q1017 NOSIG
16:55
V
18 °C 10 km+ - 190° 190° 12 kt METAR EHLE 041455Z AUTO 19012KT 9999 NSC 18/12 Q1017 NOSIG
16:25
V
17 °C 10 km+ - 200° 200° 11 kt METAR EHLE 041425Z AUTO 20011KT 170V230 9999 NSC 17/11 Q1017 NOSIG
15:55
V
18 °C 10 km+ - 190° 190° 12 kt METAR EHLE 041355Z AUTO 19012KT 160V220 9999 NSC 18/11 Q1017 NOSIG
15:25
V
18 °C 10 km+ - 200° 200° 12 kt METAR EHLE 041325Z AUTO 20012KT 160V240 9999 NSC 18/11 Q1018 NOSIG
14:55
V
18 °C 10 km+ - 210° 210° 12 kt METAR EHLE 041255Z AUTO 21012KT 9999 NSC 18/11 Q1018 NOSIG
14:25
V
17 °C 10 km+ - 200° 200° 9 kt METAR EHLE 041225Z AUTO 20009KT 150V250 9999 NSC 17/12 Q1019 NOSIG
13:55
V
16 °C 10 km+ - 210° 210° 10 kt METAR EHLE 041155Z AUTO 21010KT 170V240 9999 NSC 16/11 Q1019 NOSIG
13:25
V
17 °C 10 km+ - 210° 210° 11 kt METAR EHLE 041125Z AUTO 21011KT 170V240 9999 FEW021 17/12 Q1019 NOSIG
12:55
V
16 °C 10 km+ - 210° 210° 10 kt METAR EHLE 041055Z AUTO 21010KT 170V230 9999 NSC 16/12 Q1019 NOSIG
12:25
V
16 °C 10 km+ - 210° 210° 11 kt METAR EHLE 041025Z AUTO 21011KT 180V240 9999 FEW017 16/12 Q1019 NOSIG
11:55
V
15 °C 10 km+ - 210° 210° 12 kt METAR EHLE 040955Z AUTO 21012KT 170V240 9999 NCD 15/11 Q1019 NOSIG
11:25
V
14 °C 10 km+ - 210° 210° 11 kt METAR EHLE 040925Z AUTO 21011KT 180V240 9999 NSC 14/11 Q1020 NOSIG
10:55
V
14 °C 10 km+ - 200° 200° 10 kt METAR EHLE 040855Z AUTO 20010KT 170V230 9999 NCD 14/11 Q1020 NOSIG
10:25
V
13 °C 10 km+ - 190° 190° 9 kt METAR EHLE 040825Z AUTO 19009KT 160V230 9999 NSC 13/11 Q1020 NOSIG
09:55
V
13 °C 10 km+ - 200° 200° 8 kt METAR EHLE 040755Z AUTO 20008KT 9999 NSC 13/11 Q1020 NOSIG
09:25
V
11 °C 10 km+ - 180° 180° 7 kt METAR EHLE 040725Z AUTO 18007KT 150V220 9999 NSC 11/10 Q1020 NOSIG
08:55
M
10 °C 6 km - 170° 170° 6 kt METAR EHLE 040655Z AUTO 17006KT 6000 NSC 10/09 Q1020 BECMG CAVOK
08:25
M
8 °C 5 km - 170° 170° 6 kt METAR EHLE 040625Z AUTO 17006KT 5000 NSC 08/08 Q1020 BECMG CAVOK
07:55
I
8 °C 4,7 km - 170° 170° 6 kt METAR EHLE 040555Z AUTO 17006KT 4700 NSC 08/08 Q1020 BECMG 7000
07:25
M
8 °C 5 km - 170° 170° 4 kt METAR EHLE 040525Z AUTO 17004KT 5000 NSC 08/08 Q1020 TEMPO 4000 BR
06:55
M
8 °C 5 km - 170° 170° 5 kt METAR EHLE 040455Z AUTO 17005KT 5000 NSC 08/08 Q1020
06:25
M
8 °C 7 km - 180° 180° 6 kt METAR EHLE 040425Z AUTO 18006KT 7000 NSC 08/08 Q1020
05:55
M
9 °C 6 km - 190° 190° 4 kt METAR EHLE 040355Z AUTO 19004KT 6000 NSC 09/09 Q1020
05:25
M
9 °C 7 km - 150° 150° 5 kt METAR EHLE 040325Z AUTO 15005KT 7000 NSC 09/09 Q1021
04:55
V
10 °C 9 km - 160° 160° 4 kt METAR EHLE 040255Z AUTO 16004KT 9000 NSC 10/10 Q1021
04:25
V
10 °C 10 km+ - 190° 190° 3 kt METAR EHLE 040225Z AUTO 19003KT 9999 NSC 10/10 Q1021
03:55
V
11 °C 8 km - 180° 180° 3 kt METAR EHLE 040155Z AUTO 18003KT 8000 NSC 11/10 Q1022
03:25
V
11 °C 10 km+ - 190° 190° 4 kt METAR EHLE 040125Z AUTO 19004KT 9999 NSC 11/10 Q1022
02:55
V
12 °C 10 km+ - 200° 200° 4 kt METAR EHLE 040055Z AUTO 20004KT 9999 NSC 12/11 Q1022
02:25
V
11 °C 10 km+ - 180° 180° 5 kt METAR EHLE 040025Z AUTO 18005KT 9999 NSC 11/11 Q1023
01:55
V
11 °C 10 km+ - 150° 150° 4 kt METAR EHLE 032355Z AUTO 15004KT 9999 NSC 11/11 Q1023
01:25
V
11 °C 10 km+ - 180° 180° 3 kt METAR EHLE 032325Z AUTO 18003KT 9999 NSC 11/11 Q1023
00:55
V
11 °C 10 km+ - 160° 160° 3 kt METAR EHLE 032255Z AUTO 16003KT 9999 NSC 11/11 Q1023
00:25
V
11 °C 10 km+ - 150° 150° 4 kt METAR EHLE 032225Z AUTO 15004KT 9999 NSC 11/11 Q1023

3 oktober 2022

Tijd Code Weer Temp. Zicht Plafond Wind METAR/SPECI
23:55
V
11 °C 10 km+ - 150° 150° 4 kt METAR EHLE 032155Z AUTO 15004KT 9999 NSC 11/10 Q1024
23:25
V
11 °C 10 km+ - 140° 140° 2 kt METAR EHLE 032125Z AUTO 14002KT 9999 NSC 11/10 Q1024
22:55
V
11 °C 10 km+ - 160° 160° 2 kt METAR EHLE 032055Z AUTO 16002KT 9999 NSC 11/11 Q1024
22:25
V
11 °C 10 km+ - 150° 150° 3 kt METAR EHLE 032025Z AUTO 15003KT 9999 NSC 11/11 Q1024
21:55
V
12 °C 10 km+ - 140° 140° 3 kt METAR EHLE 031955Z AUTO 14003KT 9999 BR NSC 12/11 Q1024
21:25
V
11 °C 10 km+ - 190° 190° 1 kt METAR EHLE 031925Z AUTO 19001KT 9999 NSC 11/11 Q1024 NOSIG
20:55
V
11 °C 10 km+ - 160° 160° 4 kt METAR EHLE 031855Z AUTO 16004KT 9999 NSC 11/11 Q1024 NOSIG
20:25
V
12 °C 10 km+ - 200° 200° 1 kt METAR EHLE 031825Z AUTO 20001KT 9999 NSC 12/11 Q1025 NOSIG
19:55
V
12 °C 10 km+ - 220° 220° 3 kt METAR EHLE 031755Z AUTO 22003KT 9999 NSC 12/11 Q1025 NOSIG
19:25
V
14 °C 10 km+ - 210° 210° 4 kt METAR EHLE 031725Z AUTO 21004KT 9999 NSC 14/11 Q1025 NOSIG
18:55
V
14 °C 10 km+ - 220° 220° 4 kt METAR EHLE 031655Z AUTO 22004KT 9999 NSC 14/11 Q1025 NOSIG
18:25
V
15 °C 10 km+ - 240° 240° 5 kt METAR EHLE 031625Z AUTO 24005KT 9999 NSC 15/12 Q1025 NOSIG
17:55
V
15 °C 10 km+ 4.900 ft 230° 230° 8 kt METAR EHLE 031555Z AUTO 23008KT 9999 BKN049 15/11 Q1025 NOSIG
17:25
V
16 °C 10 km+ 4.900 ft 220° 220° 6 kt METAR EHLE 031525Z AUTO 22006KT 190V250 9999 FEW036 BKN049 16/13 Q1025 NOSIG
16:55
V
16 °C 10 km+ 3.100 ft 240° 240° 6 kt METAR EHLE 031455Z AUTO 24006KT 9999 FEW027 BKN031 OVC036 16/12 Q1026 NOSIG
Oudere gegevens

Met cookies volgen wij en derde partijen jouw internetgedrag binnen onze site. Als je verdergaat gaan we ervan uit dat je dit goedvindt. Meer info